createdAt,value
2023-02-23T00:01:27.563Z,4.32
2023-02-23T00:03:56.279Z,5.00
2023-02-23T00:06:24.372Z,4.60
2023-02-23T00:08:52.421Z,4.25
2023-02-23T00:11:21.036Z,4.70
2023-02-23T00:13:52.812Z,4.90
2023-02-23T00:16:29.090Z,4.40
2023-02-23T00:19:00.349Z,4.38
2023-02-23T00:21:35.365Z,4.57
2023-02-23T00:24:06.739Z,4.20
2023-02-23T00:26:35.295Z,4.65
2023-02-23T00:29:03.368Z,4.28
2023-02-23T00:31:30.799Z,4.45
2023-02-23T00:34:00.111Z,4.50
2023-02-23T00:36:28.930Z,4.05
2023-02-23T00:38:56.968Z,4.07
2023-02-23T00:41:30.681Z,4.05
2023-02-23T00:43:58.874Z,4.40
2023-02-23T00:46:27.437Z,4.28
2023-02-23T00:48:58.025Z,4.32
2023-02-23T00:51:32.593Z,4.78
2023-02-23T00:54:00.990Z,4.35
2023-02-23T00:56:28.625Z,4.25
2023-02-23T00:58:56.357Z,4.13
2023-02-23T01:01:24.384Z,3.97
2023-02-23T01:03:53.357Z,4.20
2023-02-23T01:06:20.612Z,4.22
2023-02-23T01:08:49.169Z,3.88
2023-02-23T01:11:18.657Z,4.20
2023-02-23T01:13:47.249Z,4.68
2023-02-23T01:16:16.083Z,4.13
2023-02-23T01:18:47.207Z,3.90
2023-02-23T01:21:16.096Z,4.28
2023-02-23T01:23:43.424Z,5.13
2023-02-23T01:26:21.063Z,3.90
2023-02-23T01:28:55.263Z,4.57
2023-02-23T01:31:23.519Z,4.00
2023-02-23T01:33:54.611Z,4.22
2023-02-23T01:36:23.100Z,4.63
2023-02-23T01:38:50.618Z,4.13
2023-02-23T01:41:18.409Z,4.03
2023-02-23T01:44:00.215Z,3.53
2023-02-23T01:46:27.694Z,3.90
2023-02-23T01:48:56.469Z,4.20
2023-02-23T01:51:26.012Z,4.30
2023-02-23T01:53:57.242Z,4.47
2023-02-23T01:56:27.003Z,4.25
2023-02-23T01:58:56.131Z,4.50
2023-02-23T02:01:23.792Z,4.22
2023-02-23T02:04:02.551Z,4.05
2023-02-23T02:06:30.421Z,4.07
2023-02-23T02:09:00.747Z,4.25
2023-02-23T02:11:31.049Z,4.60
2023-02-23T02:13:59.849Z,4.75
2023-02-23T02:16:35.962Z,4.70
2023-02-23T02:19:23.362Z,4.95
2023-02-23T02:22:10.265Z,4.57
2023-02-23T02:24:56.207Z,4.72
2023-02-23T02:27:43.735Z,4.22
2023-02-23T02:30:19.490Z,4.15
2023-02-23T02:33:06.107Z,4.63
2023-02-23T02:35:33.257Z,4.97
2023-02-23T02:38:20.712Z,4.13
2023-02-23T02:40:55.595Z,4.75
2023-02-23T02:43:25.382Z,4.75
2023-02-23T02:46:11.478Z,4.82
2023-02-23T02:48:59.574Z,4.30
2023-02-23T02:51:29.737Z,4.07
2023-02-23T02:53:56.886Z,4.35
2023-02-23T02:56:24.707Z,5.20
2023-02-23T02:58:53.588Z,4.22
2023-02-23T03:01:40.093Z,4.90
2023-02-23T03:04:39.568Z,4.63
2023-02-23T03:07:30.103Z,3.90
2023-02-23T03:10:23.054Z,4.22
2023-02-23T03:13:15.412Z,4.65
2023-02-23T03:16:01.404Z,4.53
2023-02-23T03:18:56.369Z,4.38
2023-02-23T03:21:45.498Z,4.60
2023-02-23T03:24:37.408Z,4.10
2023-02-23T03:27:26.131Z,4.00
2023-02-23T03:30:18.968Z,4.00
2023-02-23T03:33:10.502Z,4.10
2023-02-23T03:36:06.986Z,4.07
2023-02-23T03:38:56.010Z,4.18
2023-02-23T03:41:44.129Z,4.60
2023-02-23T03:44:32.516Z,6.47
2023-02-23T03:47:20.231Z,5.55
2023-02-23T03:50:08.050Z,4.65
2023-02-23T03:52:56.841Z,4.63
2023-02-23T03:55:46.539Z,4.10
2023-02-23T03:58:33.901Z,4.63
2023-02-23T04:01:22.091Z,5.45
2023-02-23T04:04:10.223Z,5.13
2023-02-23T04:06:57.755Z,4.68
2023-02-23T04:09:43.640Z,4.65
2023-02-23T04:12:33.063Z,5.15
2023-02-23T04:15:09.207Z,5.70
2023-02-23T04:17:36.492Z,4.63
2023-02-23T04:20:04.089Z,5.10
2023-02-23T04:22:31.299Z,4.32
2023-02-23T04:24:58.450Z,4.45
2023-02-23T04:27:25.605Z,4.32
2023-02-23T04:29:52.866Z,4.20
2023-02-23T04:32:21.065Z,4.20
2023-02-23T04:34:48.296Z,4.50
2023-02-23T04:37:15.479Z,4.43
2023-02-23T04:39:49.627Z,3.90
2023-02-23T04:42:17.233Z,4.10
2023-02-23T04:44:44.640Z,4.18
2023-02-23T04:47:12.431Z,4.13
2023-02-23T04:49:39.618Z,4.90
2023-02-23T04:52:06.864Z,3.60
2023-02-23T04:54:34.039Z,5.05
2023-02-23T04:57:01.188Z,4.70
2023-02-23T04:59:28.650Z,4.07
2023-02-23T05:01:55.879Z,3.92
2023-02-23T05:04:23.459Z,3.90
2023-02-23T05:06:50.639Z,4.20
2023-02-23T05:09:18.252Z,4.35
2023-02-23T05:11:46.300Z,3.92
2023-02-23T05:14:13.569Z,4.05
2023-02-23T05:16:41.111Z,4.28
2023-02-23T05:19:08.374Z,4.20
2023-02-23T05:21:35.651Z,4.18
2023-02-23T05:24:02.878Z,4.65
2023-02-23T05:26:30.512Z,5.15
2023-02-23T05:28:57.926Z,4.55
2023-02-23T05:31:25.748Z,4.70
2023-02-23T05:33:53.028Z,5.45
2023-02-23T05:36:21.949Z,4.43
2023-02-23T05:38:49.502Z,4.20
2023-02-23T05:41:21.726Z,4.72
2023-02-23T05:43:51.450Z,4.57
2023-02-23T05:46:20.732Z,4.28
2023-02-23T05:48:48.301Z,5.22
2023-02-23T05:51:16.707Z,4.75
2023-02-23T05:53:44.134Z,5.75
2023-02-23T05:56:13.528Z,5.70
2023-02-23T05:58:41.094Z,5.63
2023-02-23T06:01:08.537Z,5.60
2023-02-23T06:03:36.606Z,5.97
2023-02-23T06:06:04.243Z,5.55
2023-02-23T06:08:31.435Z,5.97
2023-02-23T06:10:58.629Z,5.35
2023-02-23T06:13:26.404Z,6.10
2023-02-23T06:15:53.704Z,6.30
2023-02-23T06:18:22.330Z,5.40
2023-02-23T06:20:49.961Z,5.95
2023-02-23T06:23:17.384Z,5.95
2023-02-23T06:25:45.214Z,6.22
2023-02-23T06:28:12.760Z,6.03
2023-02-23T06:30:40.697Z,6.45
2023-02-23T06:33:08.223Z,5.78
2023-02-23T06:35:36.017Z,6.32
2023-02-23T06:38:04.134Z,5.90
2023-02-23T06:40:31.351Z,5.40
2023-02-23T06:42:58.593Z,6.22
2023-02-23T06:45:25.864Z,7.80
2023-02-23T06:47:53.936Z,6.40
2023-02-23T06:50:21.686Z,7.65
2023-02-23T06:52:49.530Z,9.10
2023-02-23T06:55:17.406Z,26.63
2023-02-23T06:57:44.574Z,8.68
2023-02-23T07:00:15.716Z,5.82
2023-02-23T07:02:44.159Z,5.63
2023-02-23T07:05:11.962Z,11.27
2023-02-23T07:07:39.376Z,6.93
2023-02-23T07:10:07.083Z,5.45
2023-02-23T07:12:34.351Z,15.98
2023-02-23T07:15:01.593Z,35.08
2023-02-23T07:17:28.737Z,34.72
2023-02-23T07:19:55.993Z,17.90
2023-02-23T07:22:26.448Z,18.20
2023-02-23T07:24:53.588Z,21.13
2023-02-23T07:27:20.848Z,21.90
2023-02-23T07:29:48.083Z,23.83
2023-02-23T07:32:15.705Z,20.75
2023-02-23T07:34:43.042Z,19.23
2023-02-23T07:37:10.638Z,18.80
2023-02-23T07:39:37.777Z,17.52
2023-02-23T07:42:05.250Z,18.67
2023-02-23T07:44:32.417Z,16.98
2023-02-23T07:46:59.866Z,16.27
2023-02-23T07:49:27.100Z,15.50
2023-02-23T07:51:54.318Z,14.77
2023-02-23T07:54:22.222Z,9.77
2023-02-23T07:56:49.741Z,10.70
2023-02-23T07:59:17.718Z,9.23
2023-02-23T08:01:45.152Z,11.88
2023-02-23T08:04:12.397Z,24.50
2023-02-23T08:06:39.645Z,13.93
2023-02-23T08:09:07.707Z,10.07
2023-02-23T08:11:34.959Z,9.32
2023-02-23T08:14:02.432Z,8.68
2023-02-23T08:16:30.197Z,9.50
2023-02-23T08:19:00.978Z,8.57
2023-02-23T08:21:32.371Z,7.65
2023-02-23T08:24:00.365Z,7.70
2023-02-23T08:26:27.754Z,7.18
2023-02-23T08:28:55.588Z,6.40
2023-02-23T08:31:24.536Z,6.75
2023-02-23T08:33:52.882Z,6.55
2023-02-23T08:36:20.984Z,10.98
2023-02-23T08:38:48.897Z,7.97
2023-02-23T08:41:17.242Z,17.23
2023-02-23T08:43:44.618Z,7.60
2023-02-23T08:46:12.357Z,7.40
2023-02-23T08:48:40.780Z,7.32
2023-02-23T08:51:09.025Z,9.32
2023-02-23T08:53:36.702Z,8.15
2023-02-23T08:56:08.302Z,50.15
2023-02-23T08:58:36.256Z,12.88
2023-02-23T09:01:04.548Z,9.90
2023-02-23T09:03:33.563Z,7.93
2023-02-23T09:06:07.726Z,6.85
2023-02-23T09:08:34.880Z,7.60
2023-02-23T09:11:02.095Z,10.25
2023-02-23T09:13:29.314Z,8.15
2023-02-23T09:15:59.273Z,8.70
2023-02-23T09:18:29.572Z,10.15
2023-02-23T09:20:57.466Z,8.38
2023-02-23T09:23:25.687Z,8.55
2023-02-23T09:25:53.078Z,8.60
2023-02-23T09:28:21.229Z,8.98
2023-02-23T09:30:48.560Z,9.60
2023-02-23T09:33:17.206Z,7.85
2023-02-23T09:35:44.622Z,9.23
2023-02-23T09:38:11.879Z,9.30
2023-02-23T09:40:47.469Z,8.55
2023-02-23T09:43:17.418Z,9.35
2023-02-23T09:45:48.880Z,10.57
2023-02-23T09:48:20.874Z,10.07
2023-02-23T09:50:50.072Z,10.18
2023-02-23T09:53:36.397Z,9.95
2023-02-23T09:56:06.340Z,10.00
2023-02-23T09:58:34.845Z,9.70
2023-02-23T10:01:05.228Z,11.07
2023-02-23T10:03:34.504Z,10.25
2023-02-23T10:06:05.083Z,11.75
2023-02-23T10:08:38.651Z,12.70
2023-02-23T10:13:45.238Z,13.13
2023-02-23T10:16:23.180Z,12.93
2023-02-23T10:18:56.482Z,13.50
2023-02-23T10:21:39.033Z,13.55
2023-02-23T10:24:12.815Z,11.73
2023-02-23T10:26:52.041Z,12.95
2023-02-23T10:29:37.722Z,11.90
2023-02-23T10:32:06.874Z,11.48
2023-02-23T10:34:34.714Z,11.32
2023-02-23T10:37:03.689Z,12.40
2023-02-23T10:39:31.531Z,11.88
2023-02-23T10:42:03.496Z,12.05
2023-02-23T10:44:30.909Z,11.85
2023-02-23T10:47:00.892Z,11.93
2023-02-23T10:49:30.747Z,12.25
2023-02-23T10:52:02.986Z,12.93
2023-02-23T10:54:45.974Z,12.48
2023-02-23T10:57:19.683Z,11.43
2023-02-23T11:00:00.875Z,12.23
2023-02-23T11:02:30.888Z,12.02
2023-02-23T11:05:00.052Z,12.48
2023-02-23T11:07:34.726Z,11.82
2023-02-23T11:10:21.126Z,10.98
2023-02-23T11:12:49.822Z,12.35
2023-02-23T11:15:25.872Z,11.80
2023-02-23T11:18:01.088Z,10.75
2023-02-23T11:20:38.594Z,10.95
2023-02-23T11:23:18.131Z,9.05
2023-02-23T11:25:49.443Z,9.80
2023-02-23T11:28:22.730Z,9.18
2023-02-23T11:30:50.354Z,8.63
2023-02-23T11:33:19.252Z,8.57
2023-02-23T11:35:46.818Z,7.28
2023-02-23T11:38:28.064Z,8.57
2023-02-23T11:41:02.645Z,7.85
2023-02-23T11:43:30.394Z,6.68
2023-02-23T11:45:59.301Z,6.35
2023-02-23T11:48:26.741Z,7.22
2023-02-23T11:50:54.724Z,7.47
2023-02-23T11:53:29.142Z,7.05
2023-02-23T11:55:59.294Z,7.20
2023-02-23T11:58:30.679Z,7.10
2023-02-23T12:00:59.367Z,7.97
2023-02-23T12:03:27.726Z,6.72
2023-02-23T12:05:57.748Z,6.57
2023-02-23T12:08:33.487Z,7.60
2023-02-23T12:11:03.076Z,8.40
2023-02-23T12:13:30.410Z,8.07
2023-02-23T12:16:01.250Z,9.25
2023-02-23T12:18:28.682Z,10.20
2023-02-23T12:20:57.089Z,9.75
2023-02-23T12:23:30.346Z,9.70
2023-02-23T12:25:59.860Z,10.23
2023-02-23T12:28:36.555Z,11.40
2023-02-23T12:31:07.246Z,10.98
2023-02-23T12:33:39.312Z,13.50
2023-02-23T12:36:18.943Z,12.38
2023-02-23T12:38:58.686Z,12.23
2023-02-23T12:41:45.609Z,11.98
2023-02-23T12:44:21.934Z,14.70
2023-02-23T12:46:54.235Z,13.25
2023-02-23T12:49:27.041Z,13.50
2023-02-23T12:51:56.855Z,13.90
2023-02-23T12:54:25.039Z,14.07
2023-02-23T12:57:07.346Z,14.43
2023-02-23T12:59:53.357Z,14.07
2023-02-23T13:02:24.059Z,15.07
2023-02-23T13:04:54.061Z,15.45
2023-02-23T13:07:41.880Z,14.55
2023-02-23T13:10:27.921Z,13.70
2023-02-23T13:13:00.569Z,14.73
2023-02-23T13:15:31.939Z,14.85
2023-02-23T13:18:18.303Z,14.30
2023-02-23T13:20:51.673Z,13.65
2023-02-23T13:23:25.832Z,13.15
2023-02-23T13:25:58.085Z,13.68
2023-02-23T13:28:41.735Z,13.98
2023-02-23T13:31:21.130Z,13.15
2023-02-23T13:33:49.565Z,14.07
2023-02-23T13:36:17.402Z,14.93
2023-02-23T13:38:57.105Z,13.85
2023-02-23T13:41:27.334Z,13.93
2023-02-23T13:43:59.226Z,13.27
2023-02-23T13:46:29.316Z,13.65
2023-02-23T13:49:11.754Z,13.82
2023-02-23T13:51:42.662Z,14.35
2023-02-23T13:54:16.474Z,14.02
2023-02-23T13:57:03.938Z,13.25
2023-02-23T13:59:37.880Z,13.50
2023-02-23T14:02:27.743Z,13.32
2023-02-23T14:04:58.643Z,12.35
2023-02-23T14:07:32.898Z,11.85
2023-02-23T14:10:01.462Z,11.10
2023-02-23T14:12:36.545Z,10.70
2023-02-23T14:15:22.581Z,10.88
2023-02-23T14:18:09.986Z,11.23
2023-02-23T14:20:43.642Z,9.48
2023-02-23T14:23:17.046Z,9.07
2023-02-23T14:25:47.495Z,8.25
2023-02-23T14:28:39.129Z,7.38
2023-02-23T14:31:16.143Z,7.13
2023-02-23T14:33:45.226Z,6.38
2023-02-23T14:36:24.633Z,6.68
2023-02-23T14:39:01.156Z,7.60
2023-02-23T14:41:39.660Z,6.63
2023-02-23T14:44:28.906Z,6.10
2023-02-23T14:47:12.619Z,5.43
2023-02-23T14:49:43.935Z,5.32
2023-02-23T14:52:15.685Z,5.53
2023-02-23T14:54:42.830Z,5.07
2023-02-23T14:57:18.231Z,6.97
2023-02-23T14:59:46.603Z,5.07
2023-02-23T15:02:24.544Z,5.22
2023-02-23T15:04:51.972Z,5.32
2023-02-23T15:07:31.318Z,5.90
2023-02-23T15:09:59.680Z,4.40
2023-02-23T15:12:31.778Z,5.03
2023-02-23T15:15:04.294Z,4.60
2023-02-23T15:17:33.198Z,5.20
2023-02-23T15:22:53.871Z,3.92
2023-02-23T15:25:26.271Z,3.55
2023-02-23T15:27:56.031Z,4.15
2023-02-23T15:30:30.662Z,4.18
2023-02-23T15:33:05.434Z,3.70
2023-02-23T15:35:38.056Z,3.88
2023-02-23T15:38:17.767Z,3.75
2023-02-23T15:40:45.784Z,4.15
2023-02-23T15:43:13.093Z,4.10
2023-02-23T15:46:04.057Z,3.72
2023-02-23T15:48:39.915Z,3.90
2023-02-23T15:51:07.422Z,3.65
2023-02-23T15:53:36.447Z,3.72
2023-02-23T15:56:05.437Z,3.50
2023-02-23T15:58:44.446Z,3.33
2023-02-23T16:01:26.809Z,3.67
2023-02-23T16:04:00.005Z,3.53
2023-02-23T16:06:32.899Z,3.35
2023-02-23T16:09:20.729Z,3.28
2023-02-23T16:11:50.914Z,3.65
2023-02-23T16:14:20.132Z,3.38
2023-02-23T16:17:08.408Z,3.95
2023-02-23T16:19:41.312Z,4.57
2023-02-23T16:22:15.500Z,6.28
2023-02-23T16:24:42.718Z,4.93
2023-02-23T16:27:12.312Z,6.00
2023-02-23T16:29:42.006Z,4.35
2023-02-23T16:32:32.471Z,4.32
2023-02-23T16:35:08.983Z,5.10
2023-02-23T16:37:49.897Z,5.20
2023-02-23T16:40:17.105Z,5.15
2023-02-23T16:42:44.268Z,5.15
2023-02-23T16:45:15.703Z,4.15
2023-02-23T16:47:47.581Z,3.95
2023-02-23T16:50:20.962Z,4.85
2023-02-23T16:52:51.937Z,4.53
2023-02-23T16:55:25.442Z,5.40
2023-02-23T16:57:53.926Z,3.88
2023-02-23T17:00:25.809Z,4.45
2023-02-23T17:02:53.116Z,3.75
2023-02-23T17:05:23.720Z,4.55
2023-02-23T17:07:51.656Z,4.32
2023-02-23T17:10:25.142Z,4.32
2023-02-23T17:15:20.358Z,4.38
2023-02-23T17:17:47.554Z,3.58
2023-02-23T17:20:21.473Z,3.50
2023-02-23T17:22:52.082Z,3.60
2023-02-23T17:25:19.518Z,4.00
2023-02-23T17:27:46.875Z,4.10
2023-02-23T17:30:14.359Z,3.83
2023-02-23T17:32:41.775Z,3.88
2023-02-23T17:35:09.492Z,4.80
2023-02-23T17:37:37.718Z,6.60
2023-02-23T17:40:06.394Z,4.78
2023-02-23T17:42:35.093Z,4.60
2023-02-23T17:45:03.087Z,4.63
2023-02-23T17:47:31.065Z,4.55
2023-02-23T17:50:01.808Z,4.22
2023-02-23T17:52:29.665Z,3.67
2023-02-23T17:54:57.923Z,3.90
2023-02-23T17:57:26.958Z,4.43
2023-02-23T17:59:54.186Z,4.10
2023-02-23T18:02:21.720Z,4.60
2023-02-23T18:04:49.486Z,4.55
2023-02-23T18:07:18.586Z,4.65
2023-02-23T18:09:47.389Z,5.32
2023-02-23T18:12:14.605Z,5.90
2023-02-23T18:14:42.592Z,5.25
2023-02-23T18:17:10.181Z,6.22
2023-02-23T18:19:37.400Z,5.22
2023-02-23T18:22:04.611Z,6.43
2023-02-23T18:24:32.373Z,6.57
2023-02-23T18:27:03.128Z,7.18
2023-02-23T18:29:32.012Z,22.00
2023-02-23T18:31:59.817Z,18.33
2023-02-23T18:34:28.891Z,21.13
2023-02-23T18:36:57.019Z,8.95
2023-02-23T18:39:24.224Z,7.45
2023-02-23T18:41:51.453Z,8.15
2023-02-23T18:44:19.055Z,7.75
2023-02-23T18:46:46.799Z,8.70
2023-02-23T18:49:18.460Z,9.07
2023-02-23T18:51:45.680Z,9.15
2023-02-23T18:54:16.912Z,8.68
2023-02-23T18:56:45.193Z,8.25
2023-02-23T18:59:12.682Z,8.05
2023-02-23T19:01:40.285Z,7.72
2023-02-23T19:04:08.660Z,7.20
2023-02-23T19:06:38.967Z,9.20
2023-02-23T19:09:09.722Z,9.85
2023-02-23T19:11:37.932Z,8.30
2023-02-23T19:14:09.656Z,7.65
2023-02-23T19:16:37.267Z,7.85
2023-02-23T19:19:05.300Z,8.60
2023-02-23T19:21:32.520Z,8.45
2023-02-23T19:24:02.280Z,43.83
2023-02-23T19:26:30.542Z,17.63
2023-02-23T19:28:58.535Z,11.60
2023-02-23T19:31:26.793Z,10.55
2023-02-23T19:33:55.821Z,10.70
2023-02-23T19:36:23.896Z,9.55
2023-02-23T19:38:51.121Z,9.60
2023-02-23T19:41:20.582Z,8.98
2023-02-23T19:43:47.933Z,10.23
2023-02-23T19:46:17.158Z,10.68
2023-02-23T19:48:45.716Z,9.43
2023-02-23T19:51:13.585Z,9.60
2023-02-23T19:53:41.072Z,10.38
2023-02-23T19:56:10.012Z,13.10
2023-02-23T19:58:37.455Z,12.63
2023-02-23T20:01:05.749Z,14.00
2023-02-23T20:03:32.964Z,14.10
2023-02-23T20:06:00.180Z,13.23
2023-02-23T20:08:27.468Z,14.48
2023-02-23T20:10:54.707Z,13.63
2023-02-23T20:13:23.442Z,17.13
2023-02-23T20:15:51.124Z,16.88
2023-02-23T20:18:21.126Z,14.45
2023-02-23T20:20:48.755Z,13.75
2023-02-23T20:23:16.069Z,13.60
2023-02-23T20:25:43.520Z,13.20
2023-02-23T20:28:10.674Z,12.13
2023-02-23T20:30:38.047Z,12.73
2023-02-23T20:33:05.867Z,10.57
2023-02-23T20:35:33.871Z,9.75
2023-02-23T20:38:04.279Z,11.32
2023-02-23T20:40:31.907Z,14.93
2023-02-23T20:42:59.128Z,15.40
2023-02-23T20:45:27.118Z,13.80
2023-02-23T20:47:55.553Z,13.70
2023-02-23T20:50:28.617Z,14.50
2023-02-23T20:52:56.118Z,13.77
2023-02-23T20:55:27.200Z,15.80
2023-02-23T20:57:55.446Z,12.57
2023-02-23T21:00:23.771Z,12.57
2023-02-23T21:02:55.766Z,18.63
2023-02-23T21:05:24.286Z,18.58
2023-02-23T21:07:51.560Z,17.27
2023-02-23T21:10:20.597Z,14.48
2023-02-23T21:12:47.962Z,14.60
2023-02-23T21:15:15.273Z,15.70
2023-02-23T21:17:43.102Z,14.65
2023-02-23T21:20:12.450Z,15.25
2023-02-23T21:22:39.732Z,14.52
2023-02-23T21:25:09.362Z,13.30
2023-02-23T21:27:36.541Z,14.98
2023-02-23T21:30:05.575Z,12.88
2023-02-23T21:32:37.101Z,11.75
2023-02-23T21:35:04.428Z,11.27
2023-02-23T21:37:31.638Z,11.10
2023-02-23T21:39:58.761Z,10.23
2023-02-23T21:42:26.688Z,10.82
2023-02-23T21:44:53.973Z,12.02
2023-02-23T21:47:21.238Z,10.82
2023-02-23T21:49:49.428Z,10.20
2023-02-23T21:52:17.758Z,9.73
2023-02-23T21:54:49.930Z,8.85
2023-02-23T21:57:17.394Z,9.25
2023-02-23T21:59:45.376Z,9.80
2023-02-23T22:02:12.849Z,8.55
2023-02-23T22:04:40.410Z,8.23
2023-02-23T22:07:08.651Z,8.95
2023-02-23T22:09:35.975Z,8.38
2023-02-23T22:12:03.129Z,9.77
2023-02-23T22:14:30.823Z,8.32
2023-02-23T22:16:58.966Z,8.27
2023-02-23T22:19:26.162Z,8.55
2023-02-23T22:21:53.394Z,8.15
2023-02-23T22:24:20.537Z,8.35
2023-02-23T22:26:54.534Z,8.50
2023-02-23T22:29:22.835Z,8.18
2023-02-23T22:31:53.011Z,8.02
2023-02-23T22:34:20.364Z,7.65
2023-02-23T22:36:48.547Z,8.40
2023-02-23T22:39:16.421Z,9.00
2023-02-23T22:41:43.653Z,9.48
2023-02-23T22:44:16.769Z,9.38
2023-02-23T22:46:46.528Z,8.85
2023-02-23T22:49:16.075Z,10.23
2023-02-23T22:51:43.982Z,10.23
2023-02-23T22:54:11.866Z,9.52
2023-02-23T22:56:39.731Z,10.57
2023-02-23T22:59:08.664Z,11.27
2023-02-23T23:01:36.679Z,11.52
2023-02-23T23:04:10.366Z,14.98
2023-02-23T23:06:38.213Z,16.33
2023-02-23T23:09:07.579Z,20.05
2023-02-23T23:11:41.694Z,18.60
2023-02-23T23:14:10.425Z,23.70
2023-02-23T23:16:47.733Z,20.08
2023-02-23T23:19:16.838Z,21.73
2023-02-23T23:21:45.994Z,21.10
2023-02-23T23:24:13.716Z,28.77
2023-02-23T23:26:41.287Z,29.35
2023-02-23T23:29:10.260Z,31.05
2023-02-23T23:31:38.309Z,25.85
2023-02-23T23:34:07.266Z,31.75
2023-02-23T23:36:37.681Z,33.33
2023-02-23T23:39:06.189Z,29.80
2023-02-23T23:41:35.629Z,28.83
2023-02-23T23:44:05.530Z,38.75
2023-02-23T23:46:35.416Z,40.00
2023-02-23T23:49:04.711Z,38.47
2023-02-23T23:51:35.893Z,35.47
2023-02-23T23:54:03.184Z,32.38
2023-02-23T23:56:30.587Z,33.15
2023-02-23T23:58:58.751Z,34.88
